sensor_id;sensor_type;location;lat;lon;timestamp;P1;durP1;ratioP1;P2;durP2;ratioP2
63801;SDS011;49949;43.060;25.624;2024-03-23T00:54:10;23.67;;;11.65;;
63801;SDS011;49949;43.060;25.624;2024-03-23T00:56:35;22.50;;;9.68;;
63801;SDS011;49949;43.060;25.624;2024-03-23T00:59:01;20.48;;;9.13;;
63801;SDS011;49949;43.060;25.624;2024-03-23T01:01:27;18.45;;;9.73;;
63801;SDS011;49949;43.060;25.624;2024-03-23T01:03:52;18.48;;;10.20;;
63801;SDS011;49949;43.060;25.624;2024-03-23T01:06:18;21.27;;;8.82;;
63801;SDS011;49949;43.060;25.624;2024-03-23T01:08:44;19.92;;;9.45;;
63801;SDS011;49949;43.060;25.624;2024-03-23T01:11:09;18.88;;;9.02;;
63801;SDS011;49949;43.060;25.624;2024-03-23T01:13:35;19.05;;;10.07;;
63801;SDS011;49949;43.060;25.624;2024-03-23T01:16:00;34.55;;;13.80;;
63801;SDS011;49949;43.060;25.624;2024-03-23T01:18:26;23.88;;;13.48;;
63801;SDS011;49949;43.060;25.624;2024-03-23T01:20:52;22.95;;;13.07;;
63801;SDS011;49949;43.060;25.624;2024-03-23T01:23:18;29.92;;;12.00;;
63801;SDS011;49949;43.060;25.624;2024-03-23T01:25:43;20.90;;;11.35;;
63801;SDS011;49949;43.060;25.624;2024-03-23T01:28:16;22.63;;;10.77;;
63801;SDS011;49949;43.060;25.624;2024-03-23T01:30:42;23.02;;;12.18;;
63801;SDS011;49949;43.060;25.624;2024-03-23T01:33:07;24.70;;;12.48;;
63801;SDS011;49949;43.060;25.624;2024-03-23T01:35:33;21.92;;;12.23;;
63801;SDS011;49949;43.060;25.624;2024-03-23T01:37:59;26.40;;;12.02;;
63801;SDS011;49949;43.060;25.624;2024-03-23T01:40:24;27.15;;;11.25;;
63801;SDS011;49949;43.060;25.624;2024-03-23T01:42:59;22.02;;;11.07;;
63801;SDS011;49949;43.060;25.624;2024-03-23T01:45:28;20.13;;;10.18;;
63801;SDS011;49949;43.060;25.624;2024-03-23T01:47:55;23.10;;;10.43;;
63801;SDS011;49949;43.060;25.624;2024-03-23T01:50:20;20.75;;;10.48;;
63801;SDS011;49949;43.060;25.624;2024-03-23T01:52:47;18.95;;;10.48;;
63801;SDS011;49949;43.060;25.624;2024-03-23T01:55:13;29.60;;;15.90;;
63801;SDS011;49949;43.060;25.624;2024-03-23T01:57:39;28.23;;;14.60;;
63801;SDS011;49949;43.060;25.624;2024-03-23T02:00:05;30.88;;;14.68;;
63801;SDS011;49949;43.060;25.624;2024-03-23T02:02:32;23.35;;;12.73;;
63801;SDS011;49949;43.060;25.624;2024-03-23T02:04:57;23.40;;;11.73;;
63801;SDS011;49949;43.060;25.624;2024-03-23T02:07:24;22.25;;;12.07;;
63801;SDS011;49949;43.060;25.624;2024-03-23T02:09:50;24.00;;;11.75;;
63801;SDS011;49949;43.060;25.624;2024-03-23T02:12:16;29.13;;;11.55;;
63801;SDS011;49949;43.060;25.624;2024-03-23T02:14:43;22.90;;;11.68;;
63801;SDS011;49949;43.060;25.624;2024-03-23T02:17:09;33.30;;;14.70;;
63801;SDS011;49949;43.060;25.624;2024-03-23T02:19:34;30.77;;;14.85;;
63801;SDS011;49949;43.060;25.624;2024-03-23T02:22:00;37.88;;;16.15;;
63801;SDS011;49949;43.060;25.624;2024-03-23T02:24:26;37.42;;;15.45;;
63801;SDS011;49949;43.060;25.624;2024-03-23T02:26:54;29.95;;;14.45;;
63801;SDS011;49949;43.060;25.624;2024-03-23T02:29:19;27.75;;;12.43;;
63801;SDS011;49949;43.060;25.624;2024-03-23T02:31:45;27.77;;;12.75;;
63801;SDS011;49949;43.060;25.624;2024-03-23T02:34:11;35.22;;;14.75;;
63801;SDS011;49949;43.060;25.624;2024-03-23T02:36:37;33.67;;;15.57;;
63801;SDS011;49949;43.060;25.624;2024-03-23T02:39:02;29.75;;;14.93;;
63801;SDS011;49949;43.060;25.624;2024-03-23T02:41:28;25.67;;;13.13;;
63801;SDS011;49949;43.060;25.624;2024-03-23T02:43:54;32.70;;;14.50;;
63801;SDS011;49949;43.060;25.624;2024-03-23T02:46:19;43.38;;;15.90;;
63801;SDS011;49949;43.060;25.624;2024-03-23T02:48:48;35.45;;;15.85;;
63801;SDS011;49949;43.060;25.624;2024-03-23T02:51:14;25.25;;;13.50;;
63801;SDS011;49949;43.060;25.624;2024-03-23T02:53:39;34.17;;;14.18;;
63801;SDS011;49949;43.060;25.624;2024-03-23T02:56:05;40.05;;;15.85;;
63801;SDS011;49949;43.060;25.624;2024-03-23T02:58:31;36.78;;;14.95;;
63801;SDS011;49949;43.060;25.624;2024-03-23T03:00:57;28.85;;;13.65;;
63801;SDS011;49949;43.060;25.624;2024-03-23T03:03:23;21.98;;;12.18;;
63801;SDS011;49949;43.060;25.624;2024-03-23T03:05:54;28.40;;;13.38;;
63801;SDS011;49949;43.060;25.624;2024-03-23T03:08:20;32.72;;;13.55;;
63801;SDS011;49949;43.060;25.624;2024-03-23T03:10:46;32.50;;;14.35;;
63801;SDS011;49949;43.060;25.624;2024-03-23T03:13:12;28.13;;;13.80;;
63801;SDS011;49949;43.060;25.624;2024-03-23T03:15:37;31.80;;;15.63;;
63801;SDS011;49949;43.060;25.624;2024-03-23T03:18:04;27.30;;;13.95;;
63801;SDS011;49949;43.060;25.624;2024-03-23T03:20:30;31.58;;;14.52;;
63801;SDS011;49949;43.060;25.624;2024-03-23T03:22:56;29.25;;;12.88;;
63801;SDS011;49949;43.060;25.624;2024-03-23T03:25:22;34.70;;;13.57;;
63801;SDS011;49949;43.060;25.624;2024-03-23T03:27:48;31.17;;;15.77;;
63801;SDS011;49949;43.060;25.624;2024-03-23T03:30:13;40.47;;;15.32;;
63801;SDS011;49949;43.060;25.624;2024-03-23T03:32:39;30.67;;;14.55;;
63801;SDS011;49949;43.060;25.624;2024-03-23T03:35:05;28.65;;;15.10;;
63801;SDS011;49949;43.060;25.624;2024-03-23T03:37:31;37.28;;;15.38;;
63801;SDS011;49949;43.060;25.624;2024-03-23T03:39:56;36.08;;;16.13;;
63801;SDS011;49949;43.060;25.624;2024-03-23T03:42:22;41.20;;;17.05;;
63801;SDS011;49949;43.060;25.624;2024-03-23T03:44:47;28.75;;;15.25;;
63801;SDS011;49949;43.060;25.624;2024-03-23T03:47:13;30.70;;;14.77;;
63801;SDS011;49949;43.060;25.624;2024-03-23T03:49:39;29.33;;;14.63;;
63801;SDS011;49949;43.060;25.624;2024-03-23T03:52:05;34.22;;;12.73;;
63801;SDS011;49949;43.060;25.624;2024-03-23T03:54:31;31.63;;;14.30;;
63801;SDS011;49949;43.060;25.624;2024-03-23T03:56:58;28.08;;;13.23;;
63801;SDS011;49949;43.060;25.624;2024-03-23T03:59:23;25.83;;;13.43;;
63801;SDS011;49949;43.060;25.624;2024-03-23T04:01:49;32.63;;;13.00;;
63801;SDS011;49949;43.060;25.624;2024-03-23T04:04:14;28.13;;;12.20;;
63801;SDS011;49949;43.060;25.624;2024-03-23T04:06:41;25.55;;;12.85;;
63801;SDS011;49949;43.060;25.624;2024-03-23T04:09:08;25.02;;;12.85;;
63801;SDS011;49949;43.060;25.624;2024-03-23T04:11:35;27.63;;;12.77;;
63801;SDS011;49949;43.060;25.624;2024-03-23T04:14:01;29.75;;;12.82;;
63801;SDS011;49949;43.060;25.624;2024-03-23T04:16:34;25.52;;;12.73;;
63801;SDS011;49949;43.060;25.624;2024-03-23T04:19:00;26.23;;;12.68;;
63801;SDS011;49949;43.060;25.624;2024-03-23T04:21:26;30.17;;;12.80;;
63801;SDS011;49949;43.060;25.624;2024-03-23T04:23:51;27.02;;;12.50;;
63801;SDS011;49949;43.060;25.624;2024-03-23T04:26:17;24.30;;;12.35;;
63801;SDS011;49949;43.060;25.624;2024-03-23T04:28:43;24.42;;;11.88;;
63801;SDS011;49949;43.060;25.624;2024-03-23T04:31:09;31.23;;;13.15;;
63801;SDS011;49949;43.060;25.624;2024-03-23T04:33:34;23.58;;;13.15;;
63801;SDS011;49949;43.060;25.624;2024-03-23T04:36:00;32.72;;;13.45;;
63801;SDS011;49949;43.060;25.624;2024-03-23T04:38:26;58.75;;;14.93;;
63801;SDS011;49949;43.060;25.624;2024-03-23T04:40:58;27.92;;;12.45;;
63801;SDS011;49949;43.060;25.624;2024-03-23T04:43:27;27.88;;;12.30;;
63801;SDS011;49949;43.060;25.624;2024-03-23T04:45:53;24.65;;;12.05;;
63801;SDS011;49949;43.060;25.624;2024-03-23T04:48:20;24.23;;;12.98;;
63801;SDS011;49949;43.060;25.624;2024-03-23T04:50:47;21.83;;;12.52;;
63801;SDS011;49949;43.060;25.624;2024-03-23T04:53:23;25.50;;;12.10;;
63801;SDS011;49949;43.060;25.624;2024-03-23T04:55:53;27.23;;;12.35;;
63801;SDS011;49949;43.060;25.624;2024-03-23T04:58:24;26.25;;;11.95;;
63801;SDS011;49949;43.060;25.624;2024-03-23T05:00:54;25.73;;;11.27;;
63801;SDS011;49949;43.060;25.624;2024-03-23T05:03:20;18.30;;;10.68;;
63801;SDS011;49949;43.060;25.624;2024-03-23T05:05:47;27.77;;;12.35;;
63801;SDS011;49949;43.060;25.624;2024-03-23T05:08:13;23.85;;;11.00;;
63801;SDS011;49949;43.060;25.624;2024-03-23T05:10:40;23.10;;;11.77;;
63801;SDS011;49949;43.060;25.624;2024-03-23T05:13:09;26.88;;;11.75;;
63801;SDS011;49949;43.060;25.624;2024-03-23T05:15:35;26.13;;;11.07;;
63801;SDS011;49949;43.060;25.624;2024-03-23T05:18:01;26.20;;;10.85;;
63801;SDS011;49949;43.060;25.624;2024-03-23T05:20:27;31.27;;;11.60;;
63801;SDS011;49949;43.060;25.624;2024-03-23T05:22:54;25.88;;;12.18;;
63801;SDS011;49949;43.060;25.624;2024-03-23T05:25:20;26.02;;;11.77;;
63801;SDS011;49949;43.060;25.624;2024-03-23T05:27:45;21.60;;;11.73;;
63801;SDS011;49949;43.060;25.624;2024-03-23T05:30:11;28.35;;;12.13;;
63801;SDS011;49949;43.060;25.624;2024-03-23T05:32:37;25.88;;;10.95;;
63801;SDS011;49949;43.060;25.624;2024-03-23T05:35:05;23.85;;;12.43;;
63801;SDS011;49949;43.060;25.624;2024-03-23T05:37:32;26.42;;;11.38;;
63801;SDS011;49949;43.060;25.624;2024-03-23T05:39:59;26.52;;;12.13;;
63801;SDS011;49949;43.060;25.624;2024-03-23T05:42:25;26.20;;;12.15;;
63801;SDS011;49949;43.060;25.624;2024-03-23T05:44:50;33.30;;;13.05;;
63801;SDS011;49949;43.060;25.624;2024-03-23T05:47:16;32.30;;;13.65;;
63801;SDS011;49949;43.060;25.624;2024-03-23T05:49:42;39.08;;;14.75;;
63801;SDS011;49949;43.060;25.624;2024-03-23T05:52:09;34.47;;;15.50;;
63801;SDS011;49949;43.060;25.624;2024-03-23T05:54:35;40.50;;;16.35;;
63801;SDS011;49949;43.060;25.624;2024-03-23T05:57:01;37.42;;;17.23;;
63801;SDS011;49949;43.060;25.624;2024-03-23T05:59:27;40.75;;;17.65;;
63801;SDS011;49949;43.060;25.624;2024-03-23T06:01:53;40.72;;;18.10;;
63801;SDS011;49949;43.060;25.624;2024-03-23T06:04:19;44.22;;;19.42;;
63801;SDS011;49949;43.060;25.624;2024-03-23T06:06:46;54.30;;;20.67;;
63801;SDS011;49949;43.060;25.624;2024-03-23T06:09:12;49.70;;;19.52;;
63801;SDS011;49949;43.060;25.624;2024-03-23T06:11:37;51.15;;;21.25;;
63801;SDS011;49949;43.060;25.624;2024-03-23T06:14:03;52.53;;;22.42;;
63801;SDS011;49949;43.060;25.624;2024-03-23T06:16:29;72.07;;;27.42;;
63801;SDS011;49949;43.060;25.624;2024-03-23T06:18:55;79.90;;;29.73;;
63801;SDS011;49949;43.060;25.624;2024-03-23T06:21:21;93.60;;;33.78;;
63801;SDS011;49949;43.060;25.624;2024-03-23T06:23:51;85.32;;;35.78;;
63801;SDS011;49949;43.060;25.624;2024-03-23T06:26:18;97.82;;;35.10;;
63801;SDS011;49949;43.060;25.624;2024-03-23T06:28:44;101.38;;;35.80;;
63801;SDS011;49949;43.060;25.624;2024-03-23T06:31:10;96.15;;;35.13;;
63801;SDS011;49949;43.060;25.624;2024-03-23T06:33:36;102.25;;;39.00;;
63801;SDS011;49949;43.060;25.624;2024-03-23T06:36:03;86.63;;;32.63;;
63801;SDS011;49949;43.060;25.624;2024-03-23T06:38:29;78.20;;;33.13;;
63801;SDS011;49949;43.060;25.624;2024-03-23T06:40:55;65.40;;;26.33;;
63801;SDS011;49949;43.060;25.624;2024-03-23T06:43:21;192.25;;;31.33;;
63801;SDS011;49949;43.060;25.624;2024-03-23T06:45:53;69.97;;;27.70;;
63801;SDS011;49949;43.060;25.624;2024-03-23T06:48:19;54.42;;;25.08;;
63801;SDS011;49949;43.060;25.624;2024-03-23T06:50:45;57.65;;;23.75;;
63801;SDS011;49949;43.060;25.624;2024-03-23T06:53:12;62.40;;;24.05;;
63801;SDS011;49949;43.060;25.624;2024-03-23T06:55:38;57.65;;;21.90;;
63801;SDS011;49949;43.060;25.624;2024-03-23T06:58:04;50.85;;;20.73;;
63801;SDS011;49949;43.060;25.624;2024-03-23T07:00:29;42.08;;;18.05;;
63801;SDS011;49949;43.060;25.624;2024-03-23T07:02:55;43.92;;;17.25;;
63801;SDS011;49949;43.060;25.624;2024-03-23T07:05:21;43.08;;;17.08;;
63801;SDS011;49949;43.060;25.624;2024-03-23T07:07:47;32.17;;;17.00;;
63801;SDS011;49949;43.060;25.624;2024-03-23T07:10:12;38.45;;;17.27;;
63801;SDS011;49949;43.060;25.624;2024-03-23T07:12:38;39.88;;;17.88;;
63801;SDS011;49949;43.060;25.624;2024-03-23T07:15:04;45.28;;;17.13;;
63801;SDS011;49949;43.060;25.624;2024-03-23T07:17:30;32.08;;;15.32;;
63801;SDS011;49949;43.060;25.624;2024-03-23T07:19:57;38.25;;;15.00;;
63801;SDS011;49949;43.060;25.624;2024-03-23T07:22:23;32.58;;;15.23;;
63801;SDS011;49949;43.060;25.624;2024-03-23T07:24:49;35.05;;;14.40;;
63801;SDS011;49949;43.060;25.624;2024-03-23T07:27:14;34.85;;;15.63;;
63801;SDS011;49949;43.060;25.624;2024-03-23T07:29:40;27.50;;;13.63;;
63801;SDS011;49949;43.060;25.624;2024-03-23T07:32:06;28.35;;;11.40;;
63801;SDS011;49949;43.060;25.624;2024-03-23T07:34:31;21.40;;;11.10;;
63801;SDS011;49949;43.060;25.624;2024-03-23T07:36:57;24.95;;;12.73;;
63801;SDS011;49949;43.060;25.624;2024-03-23T07:39:23;33.85;;;13.25;;
63801;SDS011;49949;43.060;25.624;2024-03-23T07:41:49;30.90;;;13.75;;
63801;SDS011;49949;43.060;25.624;2024-03-23T07:44:15;19.00;;;9.95;;
63801;SDS011;49949;43.060;25.624;2024-03-23T07:46:41;21.95;;;8.07;;
63801;SDS011;49949;43.060;25.624;2024-03-23T07:49:06;12.77;;;7.00;;
63801;SDS011;49949;43.060;25.624;2024-03-23T07:51:32;16.52;;;7.45;;
63801;SDS011;49949;43.060;25.624;2024-03-23T07:53:59;32.53;;;7.93;;
63801;SDS011;49949;43.060;25.624;2024-03-23T07:56:25;19.17;;;7.45;;
63801;SDS011;49949;43.060;25.624;2024-03-23T07:58:50;12.27;;;6.63;;
63801;SDS011;49949;43.060;25.624;2024-03-23T08:01:16;13.75;;;7.60;;
63801;SDS011;49949;43.060;25.624;2024-03-23T08:03:43;11.88;;;6.60;;
63801;SDS011;49949;43.060;25.624;2024-03-23T08:06:13;11.35;;;6.00;;
63801;SDS011;49949;43.060;25.624;2024-03-23T08:08:41;10.60;;;5.90;;
63801;SDS011;49949;43.060;25.624;2024-03-23T08:11:08;12.70;;;5.40;;
63801;SDS011;49949;43.060;25.624;2024-03-23T08:13:34;14.60;;;5.70;;
63801;SDS011;49949;43.060;25.624;2024-03-23T08:16:01;6.30;;;3.97;;
63801;SDS011;49949;43.060;25.624;2024-03-23T08:18:28;10.75;;;3.50;;
63801;SDS011;49949;43.060;25.624;2024-03-23T08:23:26;8.55;;;3.90;;
63801;SDS011;49949;43.060;25.624;2024-03-23T08:25:59;9.23;;;3.22;;
63801;SDS011;49949;43.060;25.624;2024-03-23T08:28:26;2.67;;;2.20;;
63801;SDS011;49949;43.060;25.624;2024-03-23T08:30:53;3.20;;;2.55;;
63801;SDS011;49949;43.060;25.624;2024-03-23T08:33:20;3.35;;;2.00;;
63801;SDS011;49949;43.060;25.624;2024-03-23T08:36:02;1.95;;;1.55;;
63801;SDS011;49949;43.060;25.624;2024-03-23T08:38:32;2.15;;;1.75;;
63801;SDS011;49949;43.060;25.624;2024-03-23T08:41:02;2.75;;;1.90;;
63801;SDS011;49949;43.060;25.624;2024-03-23T08:43:29;1.80;;;1.70;;
63801;SDS011;49949;43.060;25.624;2024-03-23T08:46:09;2.80;;;1.85;;
63801;SDS011;49949;43.060;25.624;2024-03-23T08:48:37;2.78;;;2.00;;
63801;SDS011;49949;43.060;25.624;2024-03-23T08:51:05;2.30;;;2.00;;
63801;SDS011;49949;43.060;25.624;2024-03-23T08:53:33;9.30;;;2.33;;
63801;SDS011;49949;43.060;25.624;2024-03-23T08:56:00;6.78;;;1.90;;
63801;SDS011;49949;43.060;25.624;2024-03-23T08:58:26;2.00;;;1.80;;
63801;SDS011;49949;43.060;25.624;2024-03-23T09:00:53;3.50;;;1.92;;
63801;SDS011;49949;43.060;25.624;2024-03-23T09:03:23;1.60;;;1.50;;
63801;SDS011;49949;43.060;25.624;2024-03-23T09:05:49;3.17;;;1.80;;
63801;SDS011;49949;43.060;25.624;2024-03-23T09:08:16;3.83;;;1.70;;
63801;SDS011;49949;43.060;25.624;2024-03-23T09:10:42;2.67;;;1.67;;
63801;SDS011;49949;43.060;25.624;2024-03-23T09:13:08;2.20;;;1.80;;
63801;SDS011;49949;43.060;25.624;2024-03-23T09:15:35;1.60;;;1.50;;
63801;SDS011;49949;43.060;25.624;2024-03-23T09:18:02;2.30;;;1.05;;
63801;SDS011;49949;43.060;25.624;2024-03-23T09:20:28;1.55;;;1.38;;
63801;SDS011;49949;43.060;25.624;2024-03-23T09:22:57;1.60;;;1.50;;
63801;SDS011;49949;43.060;25.624;2024-03-23T09:25:23;1.83;;;1.50;;
63801;SDS011;49949;43.060;25.624;2024-03-23T09:27:49;2.65;;;1.50;;
63801;SDS011;49949;43.060;25.624;2024-03-23T09:30:16;8.52;;;1.70;;
63801;SDS011;49949;43.060;25.624;2024-03-23T09:32:45;1.98;;;1.70;;
63801;SDS011;49949;43.060;25.624;2024-03-23T09:35:11;3.08;;;1.63;;
63801;SDS011;49949;43.060;25.624;2024-03-23T09:37:40;1.83;;;1.10;;
63801;SDS011;49949;43.060;25.624;2024-03-23T09:40:14;3.60;;;1.50;;
63801;SDS011;49949;43.060;25.624;2024-03-23T09:42:40;1.95;;;1.52;;
63801;SDS011;49949;43.060;25.624;2024-03-23T09:45:16;1.77;;;1.40;;
63801;SDS011;49949;43.060;25.624;2024-03-23T09:47:43;1.20;;;1.10;;
63801;SDS011;49949;43.060;25.624;2024-03-23T09:50:09;5.15;;;1.40;;
63801;SDS011;49949;43.060;25.624;2024-03-23T09:52:35;118.18;;;4.65;;
63801;SDS011;49949;43.060;25.624;2024-03-23T09:55:01;4.95;;;2.10;;
63801;SDS011;49949;43.060;25.624;2024-03-23T09:57:26;3.25;;;1.35;;
63801;SDS011;49949;43.060;25.624;2024-03-23T09:59:52;2.08;;;1.40;;
63801;SDS011;49949;43.060;25.624;2024-03-23T10:02:19;1.75;;;1.60;;
63801;SDS011;49949;43.060;25.624;2024-03-23T10:04:46;6.55;;;3.05;;
63801;SDS011;49949;43.060;25.624;2024-03-23T10:07:12;2.58;;;1.40;;
63801;SDS011;49949;43.060;25.624;2024-03-23T10:09:39;2.20;;;1.35;;
63801;SDS011;49949;43.060;25.624;2024-03-23T10:12:12;3.78;;;2.20;;
63801;SDS011;49949;43.060;25.624;2024-03-23T10:14:42;3.65;;;1.63;;
63801;SDS011;49949;43.060;25.624;2024-03-23T10:17:26;3.47;;;1.50;;
63801;SDS011;49949;43.060;25.624;2024-03-23T10:19:52;1.83;;;1.45;;
63801;SDS011;49949;43.060;25.624;2024-03-23T10:22:22;54.80;;;3.97;;
63801;SDS011;49949;43.060;25.624;2024-03-23T10:24:49;6.25;;;1.38;;
63801;SDS011;49949;43.060;25.624;2024-03-23T10:27:16;1.95;;;1.00;;
63801;SDS011;49949;43.060;25.624;2024-03-23T10:29:45;4.95;;;1.55;;
63801;SDS011;49949;43.060;25.624;2024-03-23T10:32:12;1.38;;;1.20;;
63801;SDS011;49949;43.060;25.624;2024-03-23T10:34:39;1.65;;;1.00;;
63801;SDS011;49949;43.060;25.624;2024-03-23T10:37:05;2.35;;;1.23;;
63801;SDS011;49949;43.060;25.624;2024-03-23T10:39:32;2.58;;;1.70;;
63801;SDS011;49949;43.060;25.624;2024-03-23T10:42:04;2.50;;;1.90;;
63801;SDS011;49949;43.060;25.624;2024-03-23T10:44:35;3.20;;;2.17;;
63801;SDS011;49949;43.060;25.624;2024-03-23T10:47:02;7.47;;;1.40;;
63801;SDS011;49949;43.060;25.624;2024-03-23T10:49:29;1.98;;;1.50;;
63801;SDS011;49949;43.060;25.624;2024-03-23T10:51:58;2.30;;;1.30;;
63801;SDS011;49949;43.060;25.624;2024-03-23T10:54:25;2.15;;;1.50;;
63801;SDS011;49949;43.060;25.624;2024-03-23T10:57:05;1.80;;;1.50;;
63801;SDS011;49949;43.060;25.624;2024-03-23T10:59:34;1.63;;;1.52;;
63801;SDS011;49949;43.060;25.624;2024-03-23T11:02:02;1.42;;;1.30;;
63801;SDS011;49949;43.060;25.624;2024-03-23T11:04:29;2.72;;;1.42;;
63801;SDS011;49949;43.060;25.624;2024-03-23T11:06:58;1.70;;;1.55;;
63801;SDS011;49949;43.060;25.624;2024-03-23T11:11:58;1.70;;;1.20;;
63801;SDS011;49949;43.060;25.624;2024-03-23T11:14:46;5.72;;;1.20;;
63801;SDS011;49949;43.060;25.624;2024-03-23T11:17:15;2.67;;;1.60;;
63801;SDS011;49949;43.060;25.624;2024-03-23T11:19:53;2.70;;;1.70;;
63801;SDS011;49949;43.060;25.624;2024-03-23T11:22:39;2.85;;;1.60;;
63801;SDS011;49949;43.060;25.624;2024-03-23T11:27:46;1.95;;;1.50;;
63801;SDS011;49949;43.060;25.624;2024-03-23T11:30:13;3.08;;;1.55;;
63801;SDS011;49949;43.060;25.624;2024-03-23T11:32:40;2.03;;;1.67;;
63801;SDS011;49949;43.060;25.624;2024-03-23T11:35:07;4.20;;;1.60;;
63801;SDS011;49949;43.060;25.624;2024-03-23T11:37:35;2.53;;;1.55;;
63801;SDS011;49949;43.060;25.624;2024-03-23T11:40:16;2.92;;;1.73;;
63801;SDS011;49949;43.060;25.624;2024-03-23T11:42:45;3.67;;;1.45;;
63801;SDS011;49949;43.060;25.624;2024-03-23T11:45:10;2.42;;;1.50;;
63801;SDS011;49949;43.060;25.624;2024-03-23T11:47:37;4.10;;;1.75;;
63801;SDS011;49949;43.060;25.624;2024-03-23T11:50:02;2.22;;;1.50;;
63801;SDS011;49949;43.060;25.624;2024-03-23T11:52:29;3.80;;;1.73;;
63801;SDS011;49949;43.060;25.624;2024-03-23T11:55:04;3.30;;;1.70;;
63801;SDS011;49949;43.060;25.624;2024-03-23T11:57:32;2.85;;;1.80;;
63801;SDS011;49949;43.060;25.624;2024-03-23T11:59:58;3.22;;;1.60;;
63801;SDS011;49949;43.060;25.624;2024-03-23T12:02:24;4.57;;;1.67;;
63801;SDS011;49949;43.060;25.624;2024-03-23T12:04:50;2.40;;;1.77;;
63801;SDS011;49949;43.060;25.624;2024-03-23T12:10:05;9.88;;;2.00;;
63801;SDS011;49949;43.060;25.624;2024-03-23T12:12:31;2.92;;;1.77;;
63801;SDS011;49949;43.060;25.624;2024-03-23T12:15:07;2.65;;;1.60;;
63801;SDS011;49949;43.060;25.624;2024-03-23T12:17:33;12.02;;;2.03;;
63801;SDS011;49949;43.060;25.624;2024-03-23T12:20:00;1.70;;;1.60;;
63801;SDS011;49949;43.060;25.624;2024-03-23T12:22:26;1.88;;;1.75;;
63801;SDS011;49949;43.060;25.624;2024-03-23T12:24:52;4.13;;;1.60;;
63801;SDS011;49949;43.060;25.624;2024-03-23T12:27:18;2.00;;;1.65;;
63801;SDS011;49949;43.060;25.624;2024-03-23T12:29:44;2.45;;;2.10;;
63801;SDS011;49949;43.060;25.624;2024-03-23T12:32:11;3.38;;;1.65;;
63801;SDS011;49949;43.060;25.624;2024-03-23T12:34:38;2.22;;;1.80;;
63801;SDS011;49949;43.060;25.624;2024-03-23T12:37:04;4.50;;;1.60;;
63801;SDS011;49949;43.060;25.624;2024-03-23T12:39:31;4.00;;;2.00;;
63801;SDS011;49949;43.060;25.624;2024-03-23T12:41:56;4.35;;;1.90;;
63801;SDS011;49949;43.060;25.624;2024-03-23T12:44:22;3.63;;;1.40;;
63801;SDS011;49949;43.060;25.624;2024-03-23T12:46:48;3.00;;;1.60;;
63801;SDS011;49949;43.060;25.624;2024-03-23T12:49:13;1.90;;;1.67;;
63801;SDS011;49949;43.060;25.624;2024-03-23T12:51:39;3.47;;;1.52;;
63801;SDS011;49949;43.060;25.624;2024-03-23T12:54:17;1.88;;;1.40;;
63801;SDS011;49949;43.060;25.624;2024-03-23T12:56:43;1.88;;;1.50;;
63801;SDS011;49949;43.060;25.624;2024-03-23T12:59:10;2.30;;;1.70;;
63801;SDS011;49949;43.060;25.624;2024-03-23T13:01:36;3.97;;;1.85;;
63801;SDS011;49949;43.060;25.624;2024-03-23T13:04:02;3.95;;;1.60;;
63801;SDS011;49949;43.060;25.624;2024-03-23T13:06:27;1.55;;;1.45;;
63801;SDS011;49949;43.060;25.624;2024-03-23T13:08:57;2.58;;;1.27;;
63801;SDS011;49949;43.060;25.624;2024-03-23T13:11:22;1.65;;;1.45;;
63801;SDS011;49949;43.060;25.624;2024-03-23T13:13:48;1.80;;;1.67;;
63801;SDS011;49949;43.060;25.624;2024-03-23T13:16:14;5.68;;;1.70;;
63801;SDS011;49949;43.060;25.624;2024-03-23T13:18:40;3.13;;;1.80;;
63801;SDS011;49949;43.060;25.624;2024-03-23T13:21:05;1.90;;;1.70;;
63801;SDS011;49949;43.060;25.624;2024-03-23T13:23:31;2.45;;;1.38;;
63801;SDS011;49949;43.060;25.624;2024-03-23T13:25:57;2.45;;;1.70;;
63801;SDS011;49949;43.060;25.624;2024-03-23T13:28:23;3.80;;;1.70;;
63801;SDS011;49949;43.060;25.624;2024-03-23T13:30:52;1.90;;;1.70;;
63801;SDS011;49949;43.060;25.624;2024-03-23T13:33:19;3.58;;;1.75;;
63801;SDS011;49949;43.060;25.624;2024-03-23T13:35:54;4.07;;;1.75;;
63801;SDS011;49949;43.060;25.624;2024-03-23T13:38:21;3.47;;;1.67;;
63801;SDS011;49949;43.060;25.624;2024-03-23T13:40:50;2.70;;;1.88;;
63801;SDS011;49949;43.060;25.624;2024-03-23T13:43:21;2.80;;;1.90;;
63801;SDS011;49949;43.060;25.624;2024-03-23T13:45:48;3.30;;;1.60;;
63801;SDS011;49949;43.060;25.624;2024-03-23T13:48:16;1.40;;;1.30;;
63801;SDS011;49949;43.060;25.624;2024-03-23T13:50:43;1.95;;;1.30;;
63801;SDS011;49949;43.060;25.624;2024-03-23T13:53:08;2.63;;;1.80;;
63801;SDS011;49949;43.060;25.624;2024-03-23T13:55:34;1.80;;;1.70;;
63801;SDS011;49949;43.060;25.624;2024-03-23T13:58:00;1.88;;;1.33;;
63801;SDS011;49949;43.060;25.624;2024-03-23T14:00:27;2.60;;;1.73;;
63801;SDS011;49949;43.060;25.624;2024-03-23T14:02:52;3.78;;;1.60;;
63801;SDS011;49949;43.060;25.624;2024-03-23T14:05:18;3.22;;;1.63;;
63801;SDS011;49949;43.060;25.624;2024-03-23T14:07:43;2.15;;;1.63;;
63801;SDS011;49949;43.060;25.624;2024-03-23T14:10:09;2.75;;;1.63;;
63801;SDS011;49949;43.060;25.624;2024-03-23T14:12:36;2.67;;;1.75;;
63801;SDS011;49949;43.060;25.624;2024-03-23T14:15:05;1.80;;;1.50;;
63801;SDS011;49949;43.060;25.624;2024-03-23T14:17:31;4.57;;;1.70;;
63801;SDS011;49949;43.060;25.624;2024-03-23T14:19:57;3.83;;;1.50;;
63801;SDS011;49949;43.060;25.624;2024-03-23T14:22:26;1.90;;;1.70;;
63801;SDS011;49949;43.060;25.624;2024-03-23T14:24:54;2.85;;;1.67;;
63801;SDS011;49949;43.060;25.624;2024-03-23T14:27:20;4.25;;;1.90;;
63801;SDS011;49949;43.060;25.624;2024-03-23T14:29:46;4.57;;;1.98;;
63801;SDS011;49949;43.060;25.624;2024-03-23T14:32:12;3.13;;;1.73;;
63801;SDS011;49949;43.060;25.624;2024-03-23T14:34:38;3.10;;;1.70;;
63801;SDS011;49949;43.060;25.624;2024-03-23T14:37:04;2.47;;;1.70;;
63801;SDS011;49949;43.060;25.624;2024-03-23T14:39:31;2.17;;;1.65;;
63801;SDS011;49949;43.060;25.624;2024-03-23T14:41:59;5.13;;;1.67;;
63801;SDS011;49949;43.060;25.624;2024-03-23T14:44:26;6.68;;;1.60;;
63801;SDS011;49949;43.060;25.624;2024-03-23T14:46:53;1.90;;;1.60;;
63801;SDS011;49949;43.060;25.624;2024-03-23T14:49:19;1.92;;;1.42;;
63801;SDS011;49949;43.060;25.624;2024-03-23T14:51:44;2.17;;;1.67;;
63801;SDS011;49949;43.060;25.624;2024-03-23T14:54:11;3.42;;;1.90;;
63801;SDS011;49949;43.060;25.624;2024-03-23T14:56:38;1.92;;;1.67;;
63801;SDS011;49949;43.060;25.624;2024-03-23T14:59:04;3.28;;;1.42;;
63801;SDS011;49949;43.060;25.624;2024-03-23T15:01:31;2.30;;;1.80;;
63801;SDS011;49949;43.060;25.624;2024-03-23T15:03:57;2.53;;;1.70;;
63801;SDS011;49949;43.060;25.624;2024-03-23T15:06:22;2.10;;;1.63;;
63801;SDS011;49949;43.060;25.624;2024-03-23T15:08:48;2.50;;;1.40;;
63801;SDS011;49949;43.060;25.624;2024-03-23T15:11:14;3.72;;;1.40;;
63801;SDS011;49949;43.060;25.624;2024-03-23T15:13:43;2.95;;;1.65;;
63801;SDS011;49949;43.060;25.624;2024-03-23T15:16:08;2.95;;;1.50;;
63801;SDS011;49949;43.060;25.624;2024-03-23T15:18:34;1.90;;;1.70;;
63801;SDS011;49949;43.060;25.624;2024-03-23T15:21:01;3.17;;;1.83;;
63801;SDS011;49949;43.060;25.624;2024-03-23T15:23:31;4.03;;;1.67;;